Time;durP1;ratioP1;P1;durP2;ratioP2;P2;SDS_P1;SDS_P2;PMS_P1;PMS_P2;Temp;Humidity;BMP_temperature;BMP_pressure;BME280_temperature;BME280_humidity;BME280_pressure;Samples;Min_cycle;Max_cycle;Signal;HPM_P1;HPM_P2
2022/07/08 00:00:00;;;;;;;12.85;3.70;;;;;;;;;;5027248;28;20387;-51
2022/07/08 00:02:27;;;;;;;13.32;3.38;;;;;;;;;;5032530;28;20294;-51
2022/07/08 00:04:54;;;;;;;6.65;2.90;;;;;;;;;;5021701;28;20233;-52
2022/07/08 00:07:21;;;;;;;8.23;3.40;;;;;;;;;;5040629;28;20236;-51
2022/07/08 00:09:47;;;;;;;8.10;3.80;;;;;;;;;;5018817;28;20232;-50
2022/07/08 00:12:13;;;;;;;13.73;4.05;;;;;;;;;;5020845;28;20232;-52
2022/07/08 00:14:40;;;;;;;8.82;3.33;;;;;;;;;;5026053;28;20237;-52
2022/07/08 00:17:06;;;;;;;10.65;3.65;;;;;;;;;;5030237;28;20444;-52
2022/07/08 00:19:32;;;;;;;8.43;2.83;;;;;;;;;;5039027;28;20243;-52
2022/07/08 00:22:00;;;;;;;13.55;3.80;;;;;;;;;;5032568;28;20224;-51
2022/07/08 00:24:27;;;;;;;5.43;2.70;;;;;;;;;;5028217;28;20689;-51
2022/07/08 00:26:53;;;;;;;12.52;3.95;;;;;;;;;;5016860;28;20236;-51
2022/07/08 00:29:19;;;;;;;11.30;3.67;;;;;;;;;;5019360;28;20228;-52
2022/07/08 00:31:46;;;;;;;9.95;4.25;;;;;;;;;;5023199;28;20774;-52
2022/07/08 00:34:12;;;;;;;13.05;3.65;;;;;;;;;;5029049;28;20232;-52
2022/07/08 00:36:38;;;;;;;9.13;4.07;;;;;;;;;;5030676;28;20275;-52
2022/07/08 00:39:06;;;;;;;13.27;3.75;;;;;;;;;;5037165;28;20232;-52
2022/07/08 00:41:33;;;;;;;13.35;3.13;;;;;;;;;;5025246;28;20232;-52
2022/07/08 00:43:59;;;;;;;11.05;4.35;;;;;;;;;;5031959;28;20238;-52
2022/07/08 00:46:25;;;;;;;12.60;4.07;;;;;;;;;;5042584;28;20340;-52
2022/07/08 00:48:52;;;;;;;13.35;3.15;;;;;;;;;;5025589;28;20233;-52
2022/07/08 00:51:19;;;;;;;12.75;3.55;;;;;;;;;;5029618;28;20224;-52
2022/07/08 00:53:46;;;;;;;7.35;3.45;;;;;;;;;;5032692;28;20247;-50
2022/07/08 00:56:14;;;;;;;15.10;3.97;;;;;;;;;;5030752;28;20235;-52
2022/07/08 00:58:41;;;;;;;9.27;3.17;;;;;;;;;;5032569;28;20232;-53
2022/07/08 01:01:07;;;;;;;12.82;4.30;;;;;;;;;;5042507;28;20725;-52
2022/07/08 01:03:34;;;;;;;10.80;3.45;;;;;;;;;;5045058;28;20243;-52
2022/07/08 01:06:00;;;;;;;13.70;4.10;;;;;;;;;;5041062;28;20228;-53
2022/07/08 01:08:27;;;;;;;13.90;4.15;;;;;;;;;;5036424;28;20240;-55
2022/07/08 01:10:53;;;;;;;9.23;3.90;;;;;;;;;;5037454;28;20228;-51
2022/07/08 01:13:22;;;;;;;13.10;3.45;;;;;;;;;;5041773;28;20713;-52
2022/07/08 01:15:48;;;;;;;8.88;4.05;;;;;;;;;;5042457;28;20920;-53
2022/07/08 01:18:21;;;;;;;12.88;3.92;;;;;;;;;;5041492;28;20227;-52
2022/07/08 01:20:48;;;;;;;12.68;4.82;;;;;;;;;;5030669;28;20235;-51
2022/07/08 01:23:15;;;;;;;17.10;4.85;;;;;;;;;;5039904;28;20228;-54
2022/07/08 01:25:41;;;;;;;12.75;4.38;;;;;;;;;;5032476;28;20697;-53
2022/07/08 01:28:07;;;;;;;13.10;4.55;;;;;;;;;;5018483;28;20236;-51
2022/07/08 01:30:33;;;;;;;9.77;3.72;;;;;;;;;;5017385;28;20239;-53
2022/07/08 01:33:00;;;;;;;9.20;3.55;;;;;;;;;;5034611;28;20670;-51
2022/07/08 01:35:26;;;;;;;14.43;4.00;;;;;;;;;;5036531;28;20238;-52
2022/07/08 01:37:54;;;;;;;13.00;4.45;;;;;;;;;;5020119;28;20236;-52
2022/07/08 01:40:20;;;;;;;11.30;4.20;;;;;;;;;;5017720;28;20235;-53
2022/07/08 01:42:46;;;;;;;8.13;3.13;;;;;;;;;;5015063;28;20253;-52
2022/07/08 01:45:13;;;;;;;13.93;4.90;;;;;;;;;;5017984;28;20255;-52
2022/07/08 01:47:39;;;;;;;10.20;3.92;;;;;;;;;;5029076;28;20258;-52
2022/07/08 01:50:06;;;;;;;11.82;4.72;;;;;;;;;;5017137;28;20602;-50
2022/07/08 01:52:32;;;;;;;8.65;3.90;;;;;;;;;;5041289;28;20262;-52
2022/07/08 01:55:00;;;;;;;12.75;4.78;;;;;;;;;;5030437;28;20235;-51
2022/07/08 01:57:26;;;;;;;10.95;4.47;;;;;;;;;;5025175;28;20974;-51
2022/07/08 01:59:52;;;;;;;15.00;4.13;;;;;;;;;;5027285;28;20235;-53
2022/07/08 02:02:20;;;;;;;11.40;4.95;;;;;;;;;;5033732;28;20236;-53
2022/07/08 02:04:46;;;;;;;11.65;3.58;;;;;;;;;;5044361;28;20900;-52
2022/07/08 02:07:13;;;;;;;10.77;3.30;;;;;;;;;;5035745;28;20242;-51
2022/07/08 02:09:39;;;;;;;13.48;4.32;;;;;;;;;;5045715;28;20293;-52
2022/07/08 02:12:19;;;;;;;13.60;3.83;;;;;;;;;;5021796;28;20231;-52
2022/07/08 02:14:46;;;;;;;11.93;3.25;;;;;;;;;;5029031;28;20611;-52
2022/07/08 02:17:12;;;;;;;6.80;3.30;;;;;;;;;;5032235;28;20263;-51
2022/07/08 02:19:38;;;;;;;7.95;3.90;;;;;;;;;;5044332;28;20242;-53
2022/07/08 02:22:05;;;;;;;11.43;4.15;;;;;;;;;;5027639;28;20228;-52
2022/07/08 02:24:32;;;;;;;11.38;4.22;;;;;;;;;;5034972;28;20679;-53
2022/07/08 02:26:58;;;;;;;7.93;3.78;;;;;;;;;;5036953;28;20228;-52
2022/07/08 02:29:26;;;;;;;12.43;4.15;;;;;;;;;;5046053;28;20235;-54
2022/07/08 02:31:52;;;;;;;14.00;4.53;;;;;;;;;;5031152;28;20327;-52
2022/07/08 02:34:19;;;;;;;7.30;3.13;;;;;;;;;;5036952;28;20232;-52
2022/07/08 02:36:45;;;;;;;12.25;4.57;;;;;;;;;;5034729;28;20247;-52
2022/07/08 02:39:12;;;;;;;12.45;4.25;;;;;;;;;;5039649;28;20513;-54
2022/07/08 02:41:39;;;;;;;11.00;4.07;;;;;;;;;;5039086;28;20236;-52
2022/07/08 02:44:06;;;;;;;7.50;3.75;;;;;;;;;;5041239;28;20263;-53
2022/07/08 02:46:34;;;;;;;13.65;4.68;;;;;;;;;;5037587;28;20236;-52
2022/07/08 02:49:00;;;;;;;9.90;3.88;;;;;;;;;;5032309;28;20310;-52
2022/07/08 02:51:27;;;;;;;13.80;4.22;;;;;;;;;;5030624;28;20237;-52
2022/07/08 02:53:53;;;;;;;7.60;4.53;;;;;;;;;;5026731;28;20237;-51
2022/07/08 02:56:20;;;;;;;8.73;3.75;;;;;;;;;;5041576;28;20232;-52
2022/07/08 02:58:46;;;;;;;10.25;3.95;;;;;;;;;;5041667;28;20872;-52
2022/07/08 03:01:12;;;;;;;8.57;3.13;;;;;;;;;;5043843;28;20237;-52
2022/07/08 03:03:40;;;;;;;10.57;4.43;;;;;;;;;;5031315;28;20244;-52
2022/07/08 03:06:06;;;;;;;10.18;3.47;;;;;;;;;;5032832;28;20249;-52
2022/07/08 03:08:33;;;;;;;17.30;4.78;;;;;;;;;;5026945;28;20349;-52
2022/07/08 03:10:59;;;;;;;11.77;4.13;;;;;;;;;;5024396;28;20747;-51
2022/07/08 03:13:25;;;;;;;19.70;3.55;;;;;;;;;;5017480;28;20793;-51
2022/07/08 03:15:52;;;;;;;8.85;3.35;;;;;;;;;;5025412;28;20639;-52
2022/07/08 03:18:18;;;;;;;12.48;4.07;;;;;;;;;;5023323;28;20233;-51
2022/07/08 03:20:46;;;;;;;10.48;2.90;;;;;;;;;;5022950;28;20247;-51
2022/07/08 03:23:13;;;;;;;11.13;3.17;;;;;;;;;;5023599;28;20232;-52
2022/07/08 03:25:39;;;;;;;13.60;3.70;;;;;;;;;;5026182;28;20236;-52
2022/07/08 03:28:05;;;;;;;13.75;3.55;;;;;;;;;;5026203;28;20248;-52
2022/07/08 03:30:32;;;;;;;14.98;4.60;;;;;;;;;;5025182;28;20237;-52
2022/07/08 03:32:58;;;;;;;10.43;3.45;;;;;;;;;;5023795;28;20232;-50
2022/07/08 03:35:24;;;;;;;7.78;3.60;;;;;;;;;;5024959;28;20665;-51
2022/07/08 03:37:52;;;;;;;10.00;3.55;;;;;;;;;;5026661;28;20723;-52
2022/07/08 03:43:02;;;;;;;13.25;3.70;;;;;;;;;;5021518;28;20282;-52
2022/07/08 03:45:29;;;;;;;9.50;3.47;;;;;;;;;;5025981;28;20649;-51
2022/07/08 03:47:56;;;;;;;12.43;3.83;;;;;;;;;;5022204;28;20743;-52
2022/07/08 03:50:22;;;;;;;14.20;4.00;;;;;;;;;;5022777;28;20236;-52
2022/07/08 03:52:49;;;;;;;11.23;3.22;;;;;;;;;;5039130;28;20251;-52
2022/07/08 03:55:17;;;;;;;8.68;3.53;;;;;;;;;;5040917;28;20232;-51
2022/07/08 03:57:43;;;;;;;13.23;4.15;;;;;;;;;;5038157;28;20240;-51
2022/07/08 04:00:10;;;;;;;9.35;3.45;;;;;;;;;;5037678;28;20234;-51
2022/07/08 04:02:36;;;;;;;10.65;4.32;;;;;;;;;;5040281;28;20236;-52
2022/07/08 04:05:02;;;;;;;9.95;3.58;;;;;;;;;;5038267;28;20239;-52
2022/07/08 04:07:29;;;;;;;8.00;4.05;;;;;;;;;;5045397;28;20232;-52
2022/07/08 04:09:55;;;;;;;9.02;3.50;;;;;;;;;;5043928;28;20250;-52
2022/07/08 04:12:23;;;;;;;8.32;3.83;;;;;;;;;;5035133;28;20315;-53
2022/07/08 04:14:49;;;;;;;13.02;3.63;;;;;;;;;;5041120;28;20626;-52
2022/07/08 04:17:15;;;;;;;11.35;3.20;;;;;;;;;;5044626;28;20235;-51
2022/07/08 04:19:42;;;;;;;10.05;4.60;;;;;;;;;;5039561;28;20228;-52
2022/07/08 04:22:08;;;;;;;13.88;4.75;;;;;;;;;;5032462;28;20229;-54
2022/07/08 04:24:34;;;;;;;14.23;4.60;;;;;;;;;;5045752;28;20236;-52
2022/07/08 04:27:01;;;;;;;7.15;3.40;;;;;;;;;;5040278;28;20224;-53
2022/07/08 04:29:28;;;;;;;8.57;3.42;;;;;;;;;;5043068;28;20224;-51
2022/07/08 04:31:55;;;;;;;9.07;3.40;;;;;;;;;;5043595;28;20720;-51
2022/07/08 04:34:21;;;;;;;9.50;3.40;;;;;;;;;;5040511;28;20772;-51
2022/07/08 04:36:47;;;;;;;5.43;3.22;;;;;;;;;;5043245;28;20243;-52
2022/07/08 04:39:14;;;;;;;10.18;3.03;;;;;;;;;;5043373;28;20232;-52
2022/07/08 04:41:40;;;;;;;5.10;3.38;;;;;;;;;;5042469;28;20236;-52
2022/07/08 04:44:07;;;;;;;10.20;3.30;;;;;;;;;;5037394;28;20237;-52
2022/07/08 04:46:34;;;;;;;7.90;3.28;;;;;;;;;;5037846;28;20232;-52
2022/07/08 04:49:01;;;;;;;11.40;3.83;;;;;;;;;;5035646;28;20303;-51
2022/07/08 04:51:27;;;;;;;7.07;3.17;;;;;;;;;;5044440;28;21026;-52
2022/07/08 04:53:54;;;;;;;24.02;4.20;;;;;;;;;;5042026;28;20235;-52
2022/07/08 04:56:20;;;;;;;12.48;4.00;;;;;;;;;;5042916;28;20239;-52
2022/07/08 04:58:47;;;;;;;10.05;3.20;;;;;;;;;;5035806;28;20233;-52
2022/07/08 05:01:14;;;;;;;9.18;3.00;;;;;;;;;;5040453;28;20227;-53
2022/07/08 05:03:41;;;;;;;7.78;3.50;;;;;;;;;;5044926;28;20253;-52
2022/07/08 05:06:08;;;;;;;10.88;3.75;;;;;;;;;;5043332;28;20247;-51
2022/07/08 05:08:34;;;;;;;14.75;3.40;;;;;;;;;;5042395;28;20239;-51
2022/07/08 05:11:00;;;;;;;8.30;3.97;;;;;;;;;;5037653;28;20228;-52
2022/07/08 05:13:27;;;;;;;10.52;3.33;;;;;;;;;;5043125;28;20236;-52
2022/07/08 05:15:53;;;;;;;7.60;2.67;;;;;;;;;;5029749;28;20239;-51
2022/07/08 05:18:20;;;;;;;8.80;3.28;;;;;;;;;;5033912;28;20236;-51
2022/07/08 05:20:48;;;;;;;10.23;4.30;;;;;;;;;;5038744;28;20264;-52
2022/07/08 05:23:14;;;;;;;6.43;3.10;;;;;;;;;;5030070;28;20244;-51
2022/07/08 05:25:41;;;;;;;9.10;2.70;;;;;;;;;;5024290;28;20233;-53
2022/07/08 05:28:07;;;;;;;8.55;2.85;;;;;;;;;;5026561;28;20229;-50
2022/07/08 05:30:34;;;;;;;7.90;3.40;;;;;;;;;;5038941;28;20236;-56
2022/07/08 05:33:00;;;;;;;10.35;3.92;;;;;;;;;;5038754;28;20729;-52
2022/07/08 05:35:26;;;;;;;4.93;2.90;;;;;;;;;;5040299;28;20239;-52
2022/07/08 05:37:54;;;;;;;7.22;3.20;;;;;;;;;;5042750;28;20585;-52
2022/07/08 05:40:20;;;;;;;7.68;2.67;;;;;;;;;;5031645;28;20243;-52
2022/07/08 05:42:47;;;;;;;4.65;2.80;;;;;;;;;;5023432;28;20236;-52
2022/07/08 05:45:13;;;;;;;7.22;3.25;;;;;;;;;;5023188;28;20237;-52
2022/07/08 05:47:40;;;;;;;9.88;3.00;;;;;;;;;;5015089;28;20248;-51
2022/07/08 05:50:07;;;;;;;9.30;3.60;;;;;;;;;;5006693;28;20251;-55
2022/07/08 05:52:33;;;;;;;7.15;2.72;;;;;;;;;;5024293;28;20237;-54
2022/07/08 05:55:01;;;;;;;7.30;2.80;;;;;;;;;;5023855;28;20242;-51
2022/07/08 05:57:27;;;;;;;6.82;3.05;;;;;;;;;;5025109;28;20243;-52
2022/07/08 05:59:53;;;;;;;9.75;2.42;;;;;;;;;;5035813;28;20259;-51
2022/07/08 06:02:20;;;;;;;9.50;2.42;;;;;;;;;;5028616;28;20440;-51
2022/07/08 06:04:46;;;;;;;7.45;3.47;;;;;;;;;;5041191;28;20247;-51
2022/07/08 06:07:13;;;;;;;7.35;3.40;;;;;;;;;;5025734;28;20244;-52
2022/07/08 06:09:39;;;;;;;6.03;2.58;;;;;;;;;;5018752;28;20260;-51
2022/07/08 06:12:07;;;;;;;5.97;2.80;;;;;;;;;;5023532;28;20255;-51
2022/07/08 06:14:34;;;;;;;6.55;2.78;;;;;;;;;;5044959;28;20787;-52
2022/07/08 06:17:00;;;;;;;6.88;3.80;;;;;;;;;;5041654;28;20247;-52
2022/07/08 06:19:27;;;;;;;3.95;2.75;;;;;;;;;;5040970;28;20240;-53
2022/07/08 06:21:53;;;;;;;18.83;3.17;;;;;;;;;;5031133;28;20233;-52
2022/07/08 06:24:19;;;;;;;9.38;3.25;;;;;;;;;;5034152;28;20244;-53
2022/07/08 06:26:46;;;;;;;11.05;3.92;;;;;;;;;;5029497;28;20232;-52
2022/07/08 06:29:14;;;;;;;6.25;3.05;;;;;;;;;;5032362;28;20283;-53
2022/07/08 06:31:41;;;;;;;7.00;2.58;;;;;;;;;;5029869;28;20267;-51
2022/07/08 06:34:07;;;;;;;8.25;2.50;;;;;;;;;;5043197;28;20236;-51
2022/07/08 06:36:34;;;;;;;7.20;2.65;;;;;;;;;;5047161;28;20232;-52
2022/07/08 06:39:00;;;;;;;10.40;3.10;;;;;;;;;;5034839;28;20739;-52
2022/07/08 06:41:26;;;;;;;9.65;3.20;;;;;;;;;;5033076;28;20352;-53
2022/07/08 06:43:53;;;;;;;10.25;3.67;;;;;;;;;;5038972;28;20718;-51
2022/07/08 06:46:20;;;;;;;9.35;3.22;;;;;;;;;;5046389;28;20236;-51
2022/07/08 06:48:47;;;;;;;10.23;3.25;;;;;;;;;;5042346;28;20232;-51
2022/07/08 06:51:13;;;;;;;9.07;3.15;;;;;;;;;;5046276;28;20228;-52
2022/07/08 06:56:24;;;;;;;11.77;4.32;;;;;;;;;;5026209;28;20313;-52
2022/07/08 06:58:50;;;;;;;12.93;3.80;;;;;;;;;;5032743;28;20228;-51
2022/07/08 07:01:17;;;;;;;8.57;3.00;;;;;;;;;;5025800;28;20232;-52
2022/07/08 07:03:44;;;;;;;15.45;4.07;;;;;;;;;;5028547;28;20245;-52
2022/07/08 07:06:11;;;;;;;8.98;2.88;;;;;;;;;;5024648;28;20478;-51
2022/07/08 07:08:37;;;;;;;10.68;2.95;;;;;;;;;;5023232;28;20245;-53
2022/07/08 07:11:04;;;;;;;6.57;3.17;;;;;;;;;;5021895;28;20236;-52
2022/07/08 07:13:30;;;;;;;6.55;2.42;;;;;;;;;;5022901;28;20243;-53
2022/07/08 07:15:57;;;;;;;10.05;2.80;;;;;;;;;;5033469;28;20976;-52
2022/07/08 07:18:25;;;;;;;8.25;3.10;;;;;;;;;;5044515;28;20239;-51
2022/07/08 07:20:53;;;;;;;9.10;2.85;;;;;;;;;;5039001;28;20771;-52
2022/07/08 07:23:19;;;;;;;6.45;2.72;;;;;;;;;;5043388;28;20259;-51
2022/07/08 07:25:45;;;;;;;9.00;2.78;;;;;;;;;;5045915;28;20235;-51
2022/07/08 07:28:12;;;;;;;5.50;2.90;;;;;;;;;;5046134;28;20694;-51
2022/07/08 07:30:38;;;;;;;7.82;2.90;;;;;;;;;;5043661;28;20232;-52
2022/07/08 07:33:04;;;;;;;10.63;2.70;;;;;;;;;;5045913;28;20228;-54
2022/07/08 07:35:30;;;;;;;5.55;2.83;;;;;;;;;;5045564;28;20238;-52
2022/07/08 07:37:58;;;;;;;4.72;3.20;;;;;;;;;;5040610;28;20238;-51
2022/07/08 07:40:24;;;;;;;8.48;3.17;;;;;;;;;;5037191;28;20239;-51
2022/07/08 07:42:51;;;;;;;7.90;3.15;;;;;;;;;;5049390;28;20224;-52
2022/07/08 07:45:17;;;;;;;13.13;3.38;;;;;;;;;;5058132;28;20227;-52
2022/07/08 07:47:43;;;;;;;6.20;3.13;;;;;;;;;;5053181;28;20235;-52
2022/07/08 07:50:12;;;;;;;9.48;2.80;;;;;;;;;;5046223;28;20239;-53
2022/07/08 07:52:38;;;;;;;6.35;2.85;;;;;;;;;;5045313;28;20239;-54
2022/07/08 07:55:08;;;;;;;9.40;3.58;;;;;;;;;;5053371;28;20236;-60
2022/07/08 07:57:35;;;;;;;7.25;2.45;;;;;;;;;;5050104;28;20232;-53
2022/07/08 08:00:01;;;;;;;10.40;3.05;;;;;;;;;;5048044;28;20231;-52
2022/07/08 08:02:28;;;;;;;7.97;2.88;;;;;;;;;;5037054;28;25207;-52
2022/07/08 08:04:54;;;;;;;5.40;2.08;;;;;;;;;;5047384;28;20373;-51
2022/07/08 08:07:20;;;;;;;7.43;3.05;;;;;;;;;;5050300;28;20228;-52
2022/07/08 08:09:47;;;;;;;7.85;2.63;;;;;;;;;;5061441;28;20227;-52
2022/07/08 08:12:14;;;;;;;7.97;2.28;;;;;;;;;;5048959;28;20227;-52
2022/07/08 08:14:41;;;;;;;8.57;2.38;;;;;;;;;;5027483;28;20238;-53
2022/07/08 08:17:08;;;;;;;6.50;2.17;;;;;;;;;;5039746;28;20378;-51
2022/07/08 08:19:35;;;;;;;11.82;2.90;;;;;;;;;;5045763;28;20290;-51
2022/07/08 08:22:01;;;;;;;8.20;2.22;;;;;;;;;;5043351;28;20232;-53
2022/07/08 08:24:28;;;;;;;12.93;3.42;;;;;;;;;;5055057;28;20250;-52
2022/07/08 08:26:54;;;;;;;8.43;2.97;;;;;;;;;;5040118;28;20675;-52
2022/07/08 08:29:22;;;;;;;10.10;3.25;;;;;;;;;;5043865;28;20235;-52
2022/07/08 08:31:48;;;;;;;12.00;2.50;;;;;;;;;;5041551;28;20235;-51
2022/07/08 08:34:14;;;;;;;6.30;2.15;;;;;;;;;;5045585;28;20236;-51
2022/07/08 08:36:41;;;;;;;5.38;2.35;;;;;;;;;;5036777;28;20237;-52
2022/07/08 08:39:07;;;;;;;11.57;3.10;;;;;;;;;;5028648;28;20341;-51
2022/07/08 08:41:34;;;;;;;9.85;1.83;;;;;;;;;;5034390;28;20225;-52
2022/07/08 08:44:00;;;;;;;5.55;2.00;;;;;;;;;;5033024;28;20319;-52
2022/07/08 08:46:30;;;;;;;11.23;2.63;;;;;;;;;;5036088;28;20701;-51
2022/07/08 08:48:56;;;;;;;7.25;2.05;;;;;;;;;;5024516;28;20232;-52
2022/07/08 08:51:23;;;;;;;4.35;1.73;;;;;;;;;;5018563;28;20224;-52
2022/07/08 08:53:52;;;;;;;3.13;1.63;;;;;;;;;;5016766;28;20612;-52
2022/07/08 08:56:19;;;;;;;6.35;2.15;;;;;;;;;;5009494;28;20260;-51
2022/07/08 08:58:46;;;;;;;4.53;1.65;;;;;;;;;;5015299;28;20239;-50
2022/07/08 09:01:13;;;;;;;5.07;2.13;;;;;;;;;;5014465;28;20225;-52
2022/07/08 09:03:41;;;;;;;6.38;1.95;;;;;;;;;;5020858;28;20247;-51
2022/07/08 09:06:07;;;;;;;7.72;2.72;;;;;;;;;;5019046;28;20236;-51
2022/07/08 09:08:35;;;;;;;6.22;2.20;;;;;;;;;;5020579;28;20660;-52
2022/07/08 09:11:01;;;;;;;6.93;2.65;;;;;;;;;;5023667;28;20232;-53
2022/07/08 09:13:28;;;;;;;7.93;2.38;;;;;;;;;;5023439;28;20267;-54
2022/07/08 09:15:57;;;;;;;5.90;2.05;;;;;;;;;;5013196;28;20221;-52
2022/07/08 09:18:27;;;;;;;6.38;2.15;;;;;;;;;;5022219;28;20286;-52
2022/07/08 09:20:56;;;;;;;8.13;2.92;;;;;;;;;;5021001;28;20739;-53
2022/07/08 09:23:23;;;;;;;4.97;2.05;;;;;;;;;;5015497;28;20291;-55
2022/07/08 09:25:50;;;;;;;7.25;2.47;;;;;;;;;;5024218;28;20224;-52
2022/07/08 09:28:16;;;;;;;3.78;2.13;;;;;;;;;;5029622;28;20240;-52
2022/07/08 09:30:44;;;;;;;5.55;1.73;;;;;;;;;;5042986;28;20236;-52
2022/07/08 09:33:11;;;;;;;5.75;2.85;;;;;;;;;;5039823;28;20236;-52
2022/07/08 09:35:38;;;;;;;4.60;2.67;;;;;;;;;;5023236;28;20370;-51
2022/07/08 09:38:07;;;;;;;4.18;1.85;;;;;;;;;;5016848;28;20713;-51
2022/07/08 09:40:34;;;;;;;6.38;1.92;;;;;;;;;;5033917;28;20318;-51
2022/07/08 09:43:01;;;;;;;5.68;2.55;;;;;;;;;;5036495;28;20240;-51
2022/07/08 09:45:31;;;;;;;6.40;2.25;;;;;;;;;;5032377;28;20240;-51
2022/07/08 09:48:04;;;;;;;8.68;2.92;;;;;;;;;;5021563;28;20235;-51
2022/07/08 09:50:38;;;;;;;7.30;2.45;;;;;;;;;;5031878;28;20722;-52
2022/07/08 09:53:15;;;;;;;4.88;2.60;;;;;;;;;;5045311;28;20724;-52
2022/07/08 09:55:42;;;;;;;4.82;2.38;;;;;;;;;;5042289;28;20308;-52
2022/07/08 09:58:10;;;;;;;5.85;2.53;;;;;;;;;;5039813;28;20235;-54
2022/07/08 10:00:37;;;;;;;4.90;1.70;;;;;;;;;;5028389;28;20237;-51
2022/07/08 10:03:03;;;;;;;8.00;2.37;;;;;;;;;;5010137;28;20445;-51
2022/07/08 10:05:29;;;;;;;5.45;2.30;;;;;;;;;;5030757;28;20231;-53
2022/07/08 10:07:56;;;;;;;5.72;2.53;;;;;;;;;;5037394;28;20224;-52
2022/07/08 10:10:24;;;;;;;3.10;1.80;;;;;;;;;;5046127;28;20235;-53
2022/07/08 10:12:52;;;;;;;6.15;2.45;;;;;;;;;;5037418;28;20224;-52
2022/07/08 10:15:18;;;;;;;4.53;1.92;;;;;;;;;;5031024;28;20232;-52
2022/07/08 10:17:45;;;;;;;5.72;1.92;;;;;;;;;;5034116;28;20330;-51
2022/07/08 10:20:13;;;;;;;7.40;2.65;;;;;;;;;;5024159;28;20232;-53
2022/07/08 10:22:39;;;;;;;4.80;2.08;;;;;;;;;;5024267;28;20881;-54
2022/07/08 10:25:06;;;;;;;6.03;1.92;;;;;;;;;;5031944;28;20240;-52
2022/07/08 10:27:35;;;;;;;6.82;2.20;;;;;;;;;;5025393;28;20328;-53
2022/07/08 10:30:14;;;;;;;4.80;2.15;;;;;;;;;;5023998;28;20228;-51
2022/07/08 10:32:40;;;;;;;5.03;2.13;;;;;;;;;;5043743;28;20266;-51
2022/07/08 10:35:09;;;;;;;8.10;2.00;;;;;;;;;;5032012;28;20236;-52
2022/07/08 10:37:48;;;;;;;5.97;1.67;;;;;;;;;;5042566;28;20232;-53
2022/07/08 10:40:30;;;;;;;3.75;2.22;;;;;;;;;;5045242;28;20234;-54
2022/07/08 10:43:06;;;;;;;5.15;2.13;;;;;;;;;;5038191;28;20233;-51
2022/07/08 10:45:55;;;;;;;6.15;1.92;;;;;;;;;;5023782;28;20722;-53
2022/07/08 10:48:21;;;;;;;8.60;2.40;;;;;;;;;;5047467;28;20223;-51
2022/07/08 10:50:47;;;;;;;2.75;1.50;;;;;;;;;;5038159;28;20231;-51
2022/07/08 10:53:14;;;;;;;4.45;2.05;;;;;;;;;;5026682;28;20326;-52
2022/07/08 10:55:41;;;;;;;3.58;1.80;;;;;;;;;;5022619;28;20233;-51
2022/07/08 10:58:09;;;;;;;4.07;1.77;;;;;;;;;;5032266;28;20259;-52
2022/07/08 11:00:39;;;;;;;4.05;1.38;;;;;;;;;;5045771;28;20525;-51
2022/07/08 11:03:05;;;;;;;4.85;1.60;;;;;;;;;;5045324;28;20235;-52
2022/07/08 11:05:35;;;;;;;3.55;1.52;;;;;;;;;;5038270;28;20599;-50
2022/07/08 11:08:22;;;;;;;4.20;1.90;;;;;;;;;;5042215;28;20221;-51
2022/07/08 11:10:49;;;;;;;4.15;1.95;;;;;;;;;;5040698;28;20230;-52
2022/07/08 11:13:16;;;;;;;5.40;1.92;;;;;;;;;;5036175;28;20703;-52
2022/07/08 11:15:43;;;;;;;6.25;2.28;;;;;;;;;;5037146;28;20236;-52
2022/07/08 11:18:09;;;;;;;5.18;1.80;;;;;;;;;;5037020;28;20246;-56
2022/07/08 11:20:36;;;;;;;5.03;1.95;;;;;;;;;;5037196;28;20240;-53
2022/07/08 11:23:04;;;;;;;4.63;2.13;;;;;;;;;;5045058;28;20285;-52
2022/07/08 11:25:31;;;;;;;7.07;1.45;;;;;;;;;;5040532;28;20234;-51
2022/07/08 11:27:57;;;;;;;13.85;2.53;;;;;;;;;;5037942;28;20224;-52
2022/07/08 11:30:29;;;;;;;2.65;1.42;;;;;;;;;;5041458;28;20231;-56
2022/07/08 11:32:55;;;;;;;6.28;1.50;;;;;;;;;;5050059;28;20255;-51
2022/07/08 11:35:22;;;;;;;3.55;1.35;;;;;;;;;;5050413;28;20339;-51
2022/07/08 11:37:48;;;;;;;2.40;1.15;;;;;;;;;;5039414;28;20241;-51
2022/07/08 11:40:16;;;;;;;3.78;1.35;;;;;;;;;;5038385;28;20237;-52
2022/07/08 11:42:43;;;;;;;2.42;1.30;;;;;;;;;;5050278;28;20240;-52
2022/07/08 11:45:10;;;;;;;5.47;1.55;;;;;;;;;;5048262;28;20232;-51
2022/07/08 11:47:38;;;;;;;3.42;1.38;;;;;;;;;;5032154;28;20259;-51
2022/07/08 11:50:05;;;;;;;4.32;1.58;;;;;;;;;;5039126;28;20224;-51
2022/07/08 11:52:31;;;;;;;4.35;1.50;;;;;;;;;;5053309;28;20428;-51
2022/07/08 11:54:58;;;;;;;4.53;1.48;;;;;;;;;;5038762;28;20247;-51
2022/07/08 11:57:24;;;;;;;4.28;1.58;;;;;;;;;;5043606;28;20234;-52
2022/07/08 11:59:51;;;;;;;3.53;1.40;;;;;;;;;;5036314;28;20243;-51
2022/07/08 12:02:19;;;;;;;5.93;1.80;;;;;;;;;;5040361;28;20437;-50
2022/07/08 12:04:48;;;;;;;2.97;1.52;;;;;;;;;;5041364;28;20240;-51
2022/07/08 12:07:22;;;;;;;6.93;2.13;;;;;;;;;;5042119;28;20223;-51
2022/07/08 12:09:56;;;;;;;4.57;1.55;;;;;;;;;;5044214;28;20472;-51
2022/07/08 12:12:23;;;;;;;5.15;1.58;;;;;;;;;;5044802;28;20240;-50
2022/07/08 12:14:50;;;;;;;4.55;1.42;;;;;;;;;;5035967;28;20244;-52
2022/07/08 12:17:22;;;;;;;4.45;1.77;;;;;;;;;;5039024;28;20239;-52
2022/07/08 12:19:52;;;;;;;5.30;1.73;;;;;;;;;;5029409;28;20434;-53
2022/07/08 12:22:38;;;;;;;4.35;1.48;;;;;;;;;;5038856;28;20285;-52
2022/07/08 12:25:05;;;;;;;2.72;1.02;;;;;;;;;;5030508;28;20232;-52
2022/07/08 12:27:31;;;;;;;4.20;1.67;;;;;;;;;;5034430;28;20315;-50
2022/07/08 12:30:03;;;;;;;3.78;1.67;;;;;;;;;;5035463;28;20924;-51
2022/07/08 12:32:36;;;;;;;2.88;1.30;;;;;;;;;;5040775;28;20235;-51
2022/07/08 12:35:04;;;;;;;3.90;1.63;;;;;;;;;;5048952;28;20247;-52
2022/07/08 12:37:30;;;;;;;3.00;1.55;;;;;;;;;;5036389;28;20250;-52
2022/07/08 12:39:56;;;;;;;2.58;1.48;;;;;;;;;;5039472;28;20235;-53
2022/07/08 12:42:26;;;;;;;7.53;1.80;;;;;;;;;;5044919;28;20257;-51
2022/07/08 12:44:54;;;;;;;5.85;1.48;;;;;;;;;;5041647;28;20243;-50
2022/07/08 12:47:20;;;;;;;4.75;1.23;;;;;;;;;;5038865;28;20285;-51
2022/07/08 12:49:47;;;;;;;5.60;1.52;;;;;;;;;;5037707;28;20239;-51
2022/07/08 12:52:15;;;;;;;1.83;1.13;;;;;;;;;;5034520;28;20246;-51
2022/07/08 12:54:42;;;;;;;5.75;1.30;;;;;;;;;;5041222;28;20729;-51
2022/07/08 12:57:09;;;;;;;2.63;1.27;;;;;;;;;;5045332;28;20231;-51
2022/07/08 12:59:36;;;;;;;6.50;1.88;;;;;;;;;;5039952;28;20323;-51
2022/07/08 13:02:03;;;;;;;3.13;1.00;;;;;;;;;;5042051;28;20254;-52
2022/07/08 13:04:29;;;;;;;4.80;1.73;;;;;;;;;;5034416;28;20233;-50
2022/07/08 13:06:56;;;;;;;4.68;1.35;;;;;;;;;;5038134;28;20235;-51
2022/07/08 13:09:24;;;;;;;3.28;1.35;;;;;;;;;;5034289;28;20235;-51
2022/07/08 13:11:52;;;;;;;4.78;1.60;;;;;;;;;;5040246;28;20256;-52
2022/07/08 13:14:19;;;;;;;2.80;1.27;;;;;;;;;;5038366;28;20342;-51
2022/07/08 13:16:45;;;;;;;3.03;1.42;;;;;;;;;;5050007;28;20238;-51
2022/07/08 13:19:12;;;;;;;3.47;1.92;;;;;;;;;;5034119;28;20235;-51
2022/07/08 13:21:38;;;;;;;1.75;1.17;;;;;;;;;;5040549;28;20255;-52
2022/07/08 13:24:05;;;;;;;2.70;1.65;;;;;;;;;;5042820;28;20248;-51
2022/07/08 13:26:33;;;;;;;3.72;1.38;;;;;;;;;;5049387;28;20444;-50
2022/07/08 13:28:59;;;;;;;7.35;1.75;;;;;;;;;;5038416;28;20228;-52
2022/07/08 13:31:25;;;;;;;4.40;1.95;;;;;;;;;;5037541;28;20232;-51
2022/07/08 13:33:53;;;;;;;5.07;2.30;;;;;;;;;;5040787;28;20240;-51
2022/07/08 13:36:20;;;;;;;2.85;1.35;;;;;;;;;;5036699;28;20235;-51
2022/07/08 13:38:46;;;;;;;6.63;1.88;;;;;;;;;;5041672;28;20264;-51
2022/07/08 13:41:12;;;;;;;6.32;1.85;;;;;;;;;;5037943;28;20246;-52
2022/07/08 13:43:40;;;;;;;8.93;1.77;;;;;;;;;;5035461;28;20301;-53
2022/07/08 13:46:07;;;;;;;5.55;1.75;;;;;;;;;;5044881;28;20241;-51
2022/07/08 13:48:33;;;;;;;5.03;2.00;;;;;;;;;;5038257;28;20290;-50
2022/07/08 13:51:00;;;;;;;4.20;1.70;;;;;;;;;;5047059;28;20238;-50
2022/07/08 13:53:26;;;;;;;4.63;1.83;;;;;;;;;;5039632;28;20242;-51
2022/07/08 13:55:53;;;;;;;5.63;2.08;;;;;;;;;;5040775;28;20231;-53
2022/07/08 13:58:19;;;;;;;4.70;1.92;;;;;;;;;;5041780;28;20229;-52
2022/07/08 14:00:47;;;;;;;5.57;1.65;;;;;;;;;;5038694;28;20233;-52
2022/07/08 14:03:16;;;;;;;6.05;1.60;;;;;;;;;;5044765;28;20242;-51
2022/07/08 14:05:42;;;;;;;3.17;1.98;;;;;;;;;;5040512;28;20309;-51
2022/07/08 14:08:09;;;;;;;2.80;1.45;;;;;;;;;;5042098;28;20793;-52
2022/07/08 14:10:35;;;;;;;4.60;1.48;;;;;;;;;;5047169;28;20242;-51
2022/07/08 14:13:01;;;;;;;5.80;1.75;;;;;;;;;;5047584;28;20243;-53
2022/07/08 14:15:28;;;;;;;5.38;1.58;;;;;;;;;;5050448;28;20298;-51
2022/07/08 14:17:55;;;;;;;2.75;1.85;;;;;;;;;;5028418;28;20243;-52
2022/07/08 14:20:22;;;;;;;4.07;1.65;;;;;;;;;;5026876;28;20239;-51
2022/07/08 14:22:48;;;;;;;4.75;2.45;;;;;;;;;;5035043;28;20259;-52
2022/07/08 14:25:16;;;;;;;3.47;1.70;;;;;;;;;;5020727;28;20235;-52
2022/07/08 14:27:43;;;;;;;4.00;2.35;;;;;;;;;;5028208;28;20244;-51
2022/07/08 14:30:09;;;;;;;5.43;2.00;;;;;;;;;;5028943;28;20233;-52
2022/07/08 14:32:37;;;;;;;3.38;1.63;;;;;;;;;;5027041;28;20725;-52
2022/07/08 14:35:05;;;;;;;4.50;1.50;;;;;;;;;;5046306;28;20232;-51
2022/07/08 14:37:31;;;;;;;2.40;1.45;;;;;;;;;;5039087;28;20420;-51
2022/07/08 14:39:57;;;;;;;4.28;1.70;;;;;;;;;;5049874;28;20244;-52
2022/07/08 14:42:24;;;;;;;2.60;1.60;;;;;;;;;;5042978;28;20752;-50